Mid Calder, United Kingdom
Current Conditions -  °F | °C
As of 10:50 AM on Wednesday 22 Oct 2014 (Local Time) from EGPH Reporting Station
Broken Clouds Broken Clouds  
Wind Chill: 11°   Ceiling: 2300
Heat Index: 11°   Visibility: 6mi
Dew Point:   Wind: 13mph
Humidity: 88%   Direction: 240°WSW
Pressure: 30.03"   Gusts: NA
Location:  55.89°N, 3.48°W
Report Text: EGPH 220950Z 24011KT 9000 SCT014 BKN023 11/09 Q1017
Loading
Personal Weather Stations






























Interactive Weather Map
Tropical Storm Tracking
New forecast layout! Learn more

10-Day Weather Forecast

Advertisements
Track Severe Weather on mobile